sensor_id;sensor_type;location;lat;lon;timestamp;temperature;humidity
31515;DHT22;40526;52.088;17.020;2023-03-30T00:01:41;6.50;99.90
31515;DHT22;40526;52.088;17.020;2023-03-30T00:06:45;6.50;99.90
31515;DHT22;40526;52.088;17.020;2023-03-30T00:11:48;6.50;99.90
31515;DHT22;40526;52.088;17.020;2023-03-30T00:16:51;6.50;99.90
31515;DHT22;40526;52.088;17.020;2023-03-30T00:21:57;6.50;99.90
31515;DHT22;40526;52.088;17.020;2023-03-30T00:27:00;6.50;99.90
31515;DHT22;40526;52.088;17.020;2023-03-30T00:32:02;6.50;99.90
31515;DHT22;40526;52.088;17.020;2023-03-30T00:37:08;9.40;99.90
31515;DHT22;40526;52.088;17.020;2023-03-30T00:42:14;6.50;99.90
31515;DHT22;40526;52.088;17.020;2023-03-30T00:47:20;6.50;99.90
31515;DHT22;40526;52.088;17.020;2023-03-30T00:52:25;6.50;99.90
31515;DHT22;40526;52.088;17.020;2023-03-30T00:57:29;6.50;99.90
31515;DHT22;40526;52.088;17.020;2023-03-30T01:02:35;6.40;99.90
31515;DHT22;40526;52.088;17.020;2023-03-30T01:07:42;6.50;99.90
31515;DHT22;40526;52.088;17.020;2023-03-30T01:12:46;6.40;99.90
31515;DHT22;40526;52.088;17.020;2023-03-30T01:17:59;6.40;99.90
31515;DHT22;40526;52.088;17.020;2023-03-30T01:28:45;6.30;99.90
31515;DHT22;40526;52.088;17.020;2023-03-30T01:39:35;6.30;99.90
31515;DHT22;40526;52.088;17.020;2023-03-30T01:44:45;6.30;99.90
31515;DHT22;40526;52.088;17.020;2023-03-30T01:49:55;6.30;99.90
31515;DHT22;40526;52.088;17.020;2023-03-30T01:55:02;6.30;99.90
31515;DHT22;40526;52.088;17.020;2023-03-30T02:00:10;6.20;99.90
31515;DHT22;40526;52.088;17.020;2023-03-30T02:05:16;6.20;99.90
31515;DHT22;40526;52.088;17.020;2023-03-30T02:10:26;5.50;99.90
31515;DHT22;40526;52.088;17.020;2023-03-30T02:15:33;6.20;99.90
31515;DHT22;40526;52.088;17.020;2023-03-30T02:20:36;6.20;99.90
31515;DHT22;40526;52.088;17.020;2023-03-30T02:25:42;6.30;99.90
31515;DHT22;40526;52.088;17.020;2023-03-30T02:30:45;6.30;99.90
31515;DHT22;40526;52.088;17.020;2023-03-30T02:35:59;6.40;99.90
31515;DHT22;40526;52.088;17.020;2023-03-30T02:41:16;6.40;99.90
31515;DHT22;40526;52.088;17.020;2023-03-30T02:46:49;6.40;99.90
31515;DHT22;40526;52.088;17.020;2023-03-30T02:52:00;6.40;99.90
31515;DHT22;40526;52.088;17.020;2023-03-30T02:57:29;6.30;99.90
31515;DHT22;40526;52.088;17.020;2023-03-30T03:02:58;6.20;99.90
31515;DHT22;40526;52.088;17.020;2023-03-30T03:08:06;6.20;99.90
31515;DHT22;40526;52.088;17.020;2023-03-30T03:13:13;6.10;99.90
31515;DHT22;40526;52.088;17.020;2023-03-30T03:23:21;6.00;99.90
31515;DHT22;40526;52.088;17.020;2023-03-30T03:28:30;6.00;99.90
31515;DHT22;40526;52.088;17.020;2023-03-30T03:39:03;6.00;99.90
31515;DHT22;40526;52.088;17.020;2023-03-30T03:44:08;5.90;99.90
31515;DHT22;40526;52.088;17.020;2023-03-30T03:49:11;6.00;99.90
31515;DHT22;40526;52.088;17.020;2023-03-30T03:54:14;5.90;99.90
31515;DHT22;40526;52.088;17.020;2023-03-30T03:59:22;5.90;99.90
31515;DHT22;40526;52.088;17.020;2023-03-30T04:04:24;5.80;99.90
31515;DHT22;40526;52.088;17.020;2023-03-30T04:15:04;5.80;99.90
31515;DHT22;40526;52.088;17.020;2023-03-30T04:20:21;5.70;99.90
31515;DHT22;40526;52.088;17.020;2023-03-30T04:25:46;5.80;99.90
31515;DHT22;40526;52.088;17.020;2023-03-30T04:31:10;5.80;99.90
31515;DHT22;40526;52.088;17.020;2023-03-30T04:36:42;5.80;99.90
31515;DHT22;40526;52.088;17.020;2023-03-30T04:42:16;5.80;99.90
31515;DHT22;40526;52.088;17.020;2023-03-30T04:47:44;5.80;99.90
31515;DHT22;40526;52.088;17.020;2023-03-30T04:53:06;5.90;99.90
31515;DHT22;40526;52.088;17.020;2023-03-30T04:58:27;5.90;99.90
31515;DHT22;40526;52.088;17.020;2023-03-30T05:03:51;6.00;99.90
31515;DHT22;40526;52.088;17.020;2023-03-30T05:09:13;6.10;99.90
31515;DHT22;40526;52.088;17.020;2023-03-30T05:14:50;7.90;99.90
31515;DHT22;40526;52.088;17.020;2023-03-30T05:20:14;6.30;99.90
31515;DHT22;40526;52.088;17.020;2023-03-30T05:25:46;6.40;99.90
31515;DHT22;40526;52.088;17.020;2023-03-30T05:31:08;6.40;99.90
31515;DHT22;40526;52.088;17.020;2023-03-30T05:36:24;6.40;99.90
31515;DHT22;40526;52.088;17.020;2023-03-30T05:41:52;6.50;99.90
31515;DHT22;40526;52.088;17.020;2023-03-30T05:47:10;6.60;99.90
31515;DHT22;40526;52.088;17.020;2023-03-30T05:52:22;6.70;99.90
31515;DHT22;40526;52.088;17.020;2023-03-30T05:57:35;6.50;99.90
31515;DHT22;40526;52.088;17.020;2023-03-30T06:02:58;10.30;99.90
31515;DHT22;40526;52.088;17.020;2023-03-30T06:08:05;6.70;99.90
31515;DHT22;40526;52.088;17.020;2023-03-30T06:13:08;6.80;99.90
31515;DHT22;40526;52.088;17.020;2023-03-30T06:18:22;6.80;99.90
31515;DHT22;40526;52.088;17.020;2023-03-30T06:23:32;6.80;99.90
31515;DHT22;40526;52.088;17.020;2023-03-30T06:28:37;6.90;99.90
31515;DHT22;40526;52.088;17.020;2023-03-30T06:33:39;7.00;99.90
31515;DHT22;40526;52.088;17.020;2023-03-30T06:38:45;7.20;99.90
31515;DHT22;40526;52.088;17.020;2023-03-30T06:43:50;7.40;99.90
31515;DHT22;40526;52.088;17.020;2023-03-30T06:48:54;7.60;99.90
31515;DHT22;40526;52.088;17.020;2023-03-30T06:54:16;7.30;99.90
31515;DHT22;40526;52.088;17.020;2023-03-30T06:59:27;7.20;99.90
31515;DHT22;40526;52.088;17.020;2023-03-30T07:04:48;7.10;99.90
31515;DHT22;40526;52.088;17.020;2023-03-30T07:10:03;7.20;99.90
31515;DHT22;40526;52.088;17.020;2023-03-30T07:15:10;7.30;99.90
31515;DHT22;40526;52.088;17.020;2023-03-30T07:20:14;7.50;99.90
31515;DHT22;40526;52.088;17.020;2023-03-30T07:25:34;7.70;99.90
31515;DHT22;40526;52.088;17.020;2023-03-30T07:30:45;7.90;99.90
31515;DHT22;40526;52.088;17.020;2023-03-30T07:35:48;8.20;99.90
31515;DHT22;40526;52.088;17.020;2023-03-30T07:40:58;8.40;99.90
31515;DHT22;40526;52.088;17.020;2023-03-30T07:51:12;9.20;99.90
31515;DHT22;40526;52.088;17.020;2023-03-30T07:56:26;9.60;99.90
31515;DHT22;40526;52.088;17.020;2023-03-30T08:06:47;10.10;99.90
31515;DHT22;40526;52.088;17.020;2023-03-30T08:11:54;10.00;99.90
31515;DHT22;40526;52.088;17.020;2023-03-30T08:16:58;10.30;99.90
31515;DHT22;40526;52.088;17.020;2023-03-30T08:22:00;10.30;99.90
31515;DHT22;40526;52.088;17.020;2023-03-30T08:27:05;10.60;99.90
31515;DHT22;40526;52.088;17.020;2023-03-30T08:32:08;11.10;99.90
31515;DHT22;40526;52.088;17.020;2023-03-30T08:37:10;11.60;99.90
31515;DHT22;40526;52.088;17.020;2023-03-30T08:42:34;11.60;99.90
31515;DHT22;40526;52.088;17.020;2023-03-30T08:47:44;11.80;99.90
31515;DHT22;40526;52.088;17.020;2023-03-30T08:52:49;12.20;99.90
31515;DHT22;40526;52.088;17.020;2023-03-30T08:57:58;12.50;99.90
31515;DHT22;40526;52.088;17.020;2023-03-30T09:03:09;12.20;99.90
31515;DHT22;40526;52.088;17.020;2023-03-30T09:08:18;12.40;99.90
31515;DHT22;40526;52.088;17.020;2023-03-30T09:13:27;12.50;99.90
31515;DHT22;40526;52.088;17.020;2023-03-30T09:18:31;12.70;99.90
31515;DHT22;40526;52.088;17.020;2023-03-30T09:23:34;13.00;99.90
31515;DHT22;40526;52.088;17.020;2023-03-30T09:28:43;13.40;99.90
31515;DHT22;40526;52.088;17.020;2023-03-30T09:33:56;13.60;99.90
31515;DHT22;40526;52.088;17.020;2023-03-30T09:39:00;13.80;99.90
31515;DHT22;40526;52.088;17.020;2023-03-30T09:44:11;13.80;99.90
31515;DHT22;40526;52.088;17.020;2023-03-30T09:49:17;13.90;99.90
31515;DHT22;40526;52.088;17.020;2023-03-30T09:54:21;14.20;99.90
31515;DHT22;40526;52.088;17.020;2023-03-30T09:59:33;14.80;99.90
31515;DHT22;40526;52.088;17.020;2023-03-30T10:05:02;15.30;99.90
31515;DHT22;40526;52.088;17.020;2023-03-30T10:10:15;14.90;99.90
31515;DHT22;40526;52.088;17.020;2023-03-30T10:15:20;14.70;99.90
31515;DHT22;40526;52.088;17.020;2023-03-30T10:20:26;14.60;99.90
31515;DHT22;40526;52.088;17.020;2023-03-30T10:25:31;15.00;99.90
31515;DHT22;40526;52.088;17.020;2023-03-30T10:30:37;15.40;99.90
31515;DHT22;40526;52.088;17.020;2023-03-30T10:35:39;15.50;99.90
31515;DHT22;40526;52.088;17.020;2023-03-30T10:40:43;15.30;99.90
31515;DHT22;40526;52.088;17.020;2023-03-30T10:45:51;15.10;99.90
31515;DHT22;40526;52.088;17.020;2023-03-30T10:51:02;15.00;99.90
31515;DHT22;40526;52.088;17.020;2023-03-30T10:56:15;14.90;99.90
31515;DHT22;40526;52.088;17.020;2023-03-30T11:01:28;14.60;99.90
31515;DHT22;40526;52.088;17.020;2023-03-30T11:06:39;14.50;99.90
31515;DHT22;40526;52.088;17.020;2023-03-30T11:11:47;14.00;99.90
31515;DHT22;40526;52.088;17.020;2023-03-30T11:16:54;13.70;99.90
31515;DHT22;40526;52.088;17.020;2023-03-30T11:22:02;13.60;99.90
31515;DHT22;40526;52.088;17.020;2023-03-30T11:27:09;13.70;99.90
31515;DHT22;40526;52.088;17.020;2023-03-30T11:32:35;13.60;99.90
31515;DHT22;40526;52.088;17.020;2023-03-30T11:37:45;13.60;99.90
31515;DHT22;40526;52.088;17.020;2023-03-30T11:48:05;13.40;99.90
31515;DHT22;40526;52.088;17.020;2023-03-30T11:53:19;14.20;99.90
31515;DHT22;40526;52.088;17.020;2023-03-30T11:58:33;14.80;99.90
31515;DHT22;40526;52.088;17.020;2023-03-30T12:03:39;15.20;99.90
31515;DHT22;40526;52.088;17.020;2023-03-30T12:09:02;15.50;99.90
31515;DHT22;40526;52.088;17.020;2023-03-30T12:14:23;15.40;99.90
31515;DHT22;40526;52.088;17.020;2023-03-30T12:19:33;15.40;99.90
31515;DHT22;40526;52.088;17.020;2023-03-30T12:24:40;15.00;99.90
31515;DHT22;40526;52.088;17.020;2023-03-30T12:29:47;14.80;99.90
31515;DHT22;40526;52.088;17.020;2023-03-30T12:34:50;14.70;99.90
31515;DHT22;40526;52.088;17.020;2023-03-30T12:39:54;14.70;99.90
31515;DHT22;40526;52.088;17.020;2023-03-30T12:45:15;14.70;99.90
31515;DHT22;40526;52.088;17.020;2023-03-30T12:50:29;14.70;99.90
31515;DHT22;40526;52.088;17.020;2023-03-30T12:55:40;15.20;99.90
31515;DHT22;40526;52.088;17.020;2023-03-30T13:01:11;16.00;99.90
31515;DHT22;40526;52.088;17.020;2023-03-30T13:06:21;16.00;99.90
31515;DHT22;40526;52.088;17.020;2023-03-30T13:17:10;16.50;99.90
31515;DHT22;40526;52.088;17.020;2023-03-30T13:22:29;16.50;99.90
31515;DHT22;40526;52.088;17.020;2023-03-30T13:27:34;16.40;99.90
31515;DHT22;40526;52.088;17.020;2023-03-30T13:32:51;16.40;99.90
31515;DHT22;40526;52.088;17.020;2023-03-30T13:43:36;16.50;99.90
31515;DHT22;40526;52.088;17.020;2023-03-30T13:48:53;16.60;99.90
31515;DHT22;40526;52.088;17.020;2023-03-30T13:54:00;16.60;99.90
31515;DHT22;40526;52.088;17.020;2023-03-30T13:59:05;16.70;99.90
31515;DHT22;40526;52.088;17.020;2023-03-30T14:04:10;16.40;99.90
31515;DHT22;40526;52.088;17.020;2023-03-30T14:09:19;16.10;99.90
31515;DHT22;40526;52.088;17.020;2023-03-30T14:14:25;15.90;99.90
31515;DHT22;40526;52.088;17.020;2023-03-30T14:19:33;15.70;99.90
31515;DHT22;40526;52.088;17.020;2023-03-30T14:24:38;15.80;99.90
31515;DHT22;40526;52.088;17.020;2023-03-30T14:29:43;15.80;99.90
31515;DHT22;40526;52.088;17.020;2023-03-30T14:34:46;15.70;99.90
31515;DHT22;40526;52.088;17.020;2023-03-30T14:39:52;15.60;99.90
31515;DHT22;40526;52.088;17.020;2023-03-30T14:44:56;15.80;99.90
31515;DHT22;40526;52.088;17.020;2023-03-30T14:50:01;15.70;99.90
31515;DHT22;40526;52.088;17.020;2023-03-30T14:55:10;15.80;99.90
31515;DHT22;40526;52.088;17.020;2023-03-30T15:00:15;15.90;99.90
31515;DHT22;40526;52.088;17.020;2023-03-30T15:05:19;15.80;99.90
31515;DHT22;40526;52.088;17.020;2023-03-30T15:10:27;15.50;99.90
31515;DHT22;40526;52.088;17.020;2023-03-30T15:15:34;15.20;99.90
31515;DHT22;40526;52.088;17.020;2023-03-30T15:20:37;14.90;99.90
31515;DHT22;40526;52.088;17.020;2023-03-30T15:25:41;14.70;99.90
31515;DHT22;40526;52.088;17.020;2023-03-30T15:30:47;14.50;99.90
31515;DHT22;40526;52.088;17.020;2023-03-30T15:35:50;14.30;99.90
31515;DHT22;40526;52.088;17.020;2023-03-30T15:40:54;14.20;99.90
31515;DHT22;40526;52.088;17.020;2023-03-30T15:46:00;14.20;99.90
31515;DHT22;40526;52.088;17.020;2023-03-30T15:51:04;14.10;99.90
31515;DHT22;40526;52.088;17.020;2023-03-30T15:56:18;14.10;99.90
31515;DHT22;40526;52.088;17.020;2023-03-30T16:01:21;14.00;99.90
31515;DHT22;40526;52.088;17.020;2023-03-30T16:06:24;13.80;99.90
31515;DHT22;40526;52.088;17.020;2023-03-30T16:11:30;13.70;99.90
31515;DHT22;40526;52.088;17.020;2023-03-30T16:21:34;13.50;99.90
31515;DHT22;40526;52.088;17.020;2023-03-30T16:26:38;13.40;99.90
31515;DHT22;40526;52.088;17.020;2023-03-30T16:36:42;13.40;99.90
31515;DHT22;40526;52.088;17.020;2023-03-30T16:41:47;13.40;99.90
31515;DHT22;40526;52.088;17.020;2023-03-30T16:46:50;13.40;99.90
31515;DHT22;40526;52.088;17.020;2023-03-30T16:51:52;13.30;99.90
31515;DHT22;40526;52.088;17.020;2023-03-30T16:56:56;13.20;99.90
31515;DHT22;40526;52.088;17.020;2023-03-30T17:01:58;13.00;99.90
31515;DHT22;40526;52.088;17.020;2023-03-30T17:07:02;9.10;99.90
31515;DHT22;40526;52.088;17.020;2023-03-30T17:12:06;12.70;99.90
31515;DHT22;40526;52.088;17.020;2023-03-30T17:22:12;12.60;99.90
31515;DHT22;40526;52.088;17.020;2023-03-30T17:27:16;12.40;99.90
31515;DHT22;40526;52.088;17.020;2023-03-30T17:32:19;12.20;99.90
31515;DHT22;40526;52.088;17.020;2023-03-30T17:37:21;12.00;99.90
31515;DHT22;40526;52.088;17.020;2023-03-30T17:42:24;11.70;99.90
31515;DHT22;40526;52.088;17.020;2023-03-30T17:47:28;11.50;99.90
31515;DHT22;40526;52.088;17.020;2023-03-30T17:57:34;11.50;99.90
31515;DHT22;40526;52.088;17.020;2023-03-30T18:02:37;11.40;99.90
31515;DHT22;40526;52.088;17.020;2023-03-30T18:07:39;11.60;99.90
31515;DHT22;40526;52.088;17.020;2023-03-30T18:12:43;11.90;99.90
31515;DHT22;40526;52.088;17.020;2023-03-30T18:17:45;12.00;99.90
31515;DHT22;40526;52.088;17.020;2023-03-30T18:22:49;12.10;99.90
31515;DHT22;40526;52.088;17.020;2023-03-30T18:27:53;12.10;99.90
31515;DHT22;40526;52.088;17.020;2023-03-30T18:37:58;11.60;99.90
31515;DHT22;40526;52.088;17.020;2023-03-30T18:43:02;11.60;99.90
31515;DHT22;40526;52.088;17.020;2023-03-30T18:48:06;11.50;99.90
31515;DHT22;40526;52.088;17.020;2023-03-30T18:53:10;11.40;99.90
31515;DHT22;40526;52.088;17.020;2023-03-30T18:58:16;10.90;99.90
31515;DHT22;40526;52.088;17.020;2023-03-30T19:03:20;10.50;99.90
31515;DHT22;40526;52.088;17.020;2023-03-30T19:08:24;10.20;99.90
31515;DHT22;40526;52.088;17.020;2023-03-30T19:13:28;9.90;99.90
31515;DHT22;40526;52.088;17.020;2023-03-30T19:18:30;9.80;99.90
31515;DHT22;40526;52.088;17.020;2023-03-30T19:23:32;9.70;99.90
31515;DHT22;40526;52.088;17.020;2023-03-30T19:28:36;9.70;99.90
31515;DHT22;40526;52.088;17.020;2023-03-30T19:33:38;9.60;99.90
31515;DHT22;40526;52.088;17.020;2023-03-30T19:38:40;9.50;99.90
31515;DHT22;40526;52.088;17.020;2023-03-30T19:43:45;9.60;99.90
31515;DHT22;40526;52.088;17.020;2023-03-30T19:48:49;9.50;99.90
31515;DHT22;40526;52.088;17.020;2023-03-30T19:53:51;9.60;99.90
31515;DHT22;40526;52.088;17.020;2023-03-30T19:58:55;9.50;99.90
31515;DHT22;40526;52.088;17.020;2023-03-30T20:03:58;9.50;99.90
31515;DHT22;40526;52.088;17.020;2023-03-30T20:09:01;9.50;99.90
31515;DHT22;40526;52.088;17.020;2023-03-30T20:14:05;9.50;99.90
31515;DHT22;40526;52.088;17.020;2023-03-30T20:19:08;9.50;99.90
31515;DHT22;40526;52.088;17.020;2023-03-30T20:24:14;9.40;99.90
31515;DHT22;40526;52.088;17.020;2023-03-30T20:29:18;9.50;99.90
31515;DHT22;40526;52.088;17.020;2023-03-30T20:34:20;9.50;99.90
31515;DHT22;40526;52.088;17.020;2023-03-30T20:44:28;9.50;99.90
31515;DHT22;40526;52.088;17.020;2023-03-30T20:59:42;9.60;99.90
31515;DHT22;40526;52.088;17.020;2023-03-30T21:04:47;9.60;99.90
31515;DHT22;40526;52.088;17.020;2023-03-30T21:09:49;9.50;99.90
31515;DHT22;40526;52.088;17.020;2023-03-30T21:14:53;9.40;99.90
31515;DHT22;40526;52.088;17.020;2023-03-30T21:24:58;9.40;99.90
31515;DHT22;40526;52.088;17.020;2023-03-30T21:30:02;9.40;99.90
31515;DHT22;40526;52.088;17.020;2023-03-30T21:35:04;9.20;99.90
31515;DHT22;40526;52.088;17.020;2023-03-30T21:40:07;9.10;99.90
31515;DHT22;40526;52.088;17.020;2023-03-30T21:45:11;9.00;99.90
31515;DHT22;40526;52.088;17.020;2023-03-30T21:50:14;8.90;99.90
31515;DHT22;40526;52.088;17.020;2023-03-30T21:55:16;8.80;99.90
31515;DHT22;40526;52.088;17.020;2023-03-30T22:00:20;8.60;99.90
31515;DHT22;40526;52.088;17.020;2023-03-30T22:05:22;8.60;99.90
31515;DHT22;40526;52.088;17.020;2023-03-30T22:10:24;8.50;99.90
31515;DHT22;40526;52.088;17.020;2023-03-30T22:15:28;8.50;99.90
31515;DHT22;40526;52.088;17.020;2023-03-30T22:20:30;8.50;99.90
31515;DHT22;40526;52.088;17.020;2023-03-30T22:25:33;8.40;99.90
31515;DHT22;40526;52.088;17.020;2023-03-30T22:30:39;8.40;99.90
31515;DHT22;40526;52.088;17.020;2023-03-30T22:35:43;8.60;99.90
31515;DHT22;40526;52.088;17.020;2023-03-30T22:40:45;8.80;99.90
31515;DHT22;40526;52.088;17.020;2023-03-30T22:45:49;9.00;99.90
31515;DHT22;40526;52.088;17.020;2023-03-30T22:50:51;9.00;99.90
31515;DHT22;40526;52.088;17.020;2023-03-30T22:55:53;8.90;99.90
31515;DHT22;40526;52.088;17.020;2023-03-30T23:01:01;8.90;99.90
31515;DHT22;40526;52.088;17.020;2023-03-30T23:06:05;8.90;99.90
31515;DHT22;40526;52.088;17.020;2023-03-30T23:16:14;8.60;99.90
31515;DHT22;40526;52.088;17.020;2023-03-30T23:21:17;8.60;99.90
31515;DHT22;40526;52.088;17.020;2023-03-30T23:26:21;8.50;99.90
31515;DHT22;40526;52.088;17.020;2023-03-30T23:31:25;8.40;99.90
31515;DHT22;40526;52.088;17.020;2023-03-30T23:36:27;8.50;99.90
31515;DHT22;40526;52.088;17.020;2023-03-30T23:41:30;8.60;99.90
31515;DHT22;40526;52.088;17.020;2023-03-30T23:51:37;8.80;99.90
31515;DHT22;40526;52.088;17.020;2023-03-30T23:56:40;8.90;99.90
